Terminal Aerodrome Forecast
Issued by NWS

Home | Current Version | Previous Version | Text Only | Print | Product List | Glossary On
Versions: 1 2 3 4 5 6 7 8 9 10 11
089
FTPA31 PHFO 282330
TAFHJH
TAF
PHJH 282330Z 2900/2924 31008KT P6SM VCSH FEW025 SCT040 BKN060
     FM290500 VRB05KT P6SM VCSH FEW025 SCT040 BKN060
     FM292000 33008KT P6SM VCSH FEW025 SCT040 BKN060
      AMD NOT SKED=

USA.gov is the U.S. government's official web portal to all federal, state and local government web resources and services.